sensor_id;sensor_type;location;lat;lon;timestamp;P1;durP1;ratioP1;P2;durP2;ratioP2
10565;SDS011;5331;48.148;16.326;2022-08-19T00:00:48;3.25;;;2.95;;
10565;SDS011;5331;48.148;16.326;2022-08-19T00:03:16;4.68;;;3.35;;
10565;SDS011;5331;48.148;16.326;2022-08-19T00:05:44;4.57;;;3.38;;
10565;SDS011;5331;48.148;16.326;2022-08-19T00:08:11;4.65;;;3.10;;
10565;SDS011;5331;48.148;16.326;2022-08-19T00:10:38;4.50;;;3.47;;
10565;SDS011;5331;48.148;16.326;2022-08-19T00:13:05;4.75;;;3.55;;
10565;SDS011;5331;48.148;16.326;2022-08-19T00:15:32;3.78;;;2.90;;
10565;SDS011;5331;48.148;16.326;2022-08-19T00:17:59;4.70;;;3.20;;
10565;SDS011;5331;48.148;16.326;2022-08-19T00:20:27;4.25;;;3.30;;
10565;SDS011;5331;48.148;16.326;2022-08-19T00:22:55;4.63;;;3.33;;
10565;SDS011;5331;48.148;16.326;2022-08-19T00:25:22;5.80;;;3.60;;
10565;SDS011;5331;48.148;16.326;2022-08-19T00:27:49;7.18;;;3.47;;
10565;SDS011;5331;48.148;16.326;2022-08-19T00:30:16;4.68;;;3.40;;
10565;SDS011;5331;48.148;16.326;2022-08-19T00:32:43;4.53;;;3.30;;
10565;SDS011;5331;48.148;16.326;2022-08-19T00:35:10;4.13;;;3.35;;
10565;SDS011;5331;48.148;16.326;2022-08-19T00:37:37;5.78;;;3.60;;
10565;SDS011;5331;48.148;16.326;2022-08-19T00:40:10;3.70;;;3.40;;
10565;SDS011;5331;48.148;16.326;2022-08-19T00:42:38;4.03;;;3.30;;
10565;SDS011;5331;48.148;16.326;2022-08-19T00:45:09;4.80;;;3.42;;
10565;SDS011;5331;48.148;16.326;2022-08-19T00:47:42;5.90;;;3.42;;
10565;SDS011;5331;48.148;16.326;2022-08-19T00:50:10;4.28;;;3.47;;
10565;SDS011;5331;48.148;16.326;2022-08-19T00:52:40;6.28;;;3.75;;
10565;SDS011;5331;48.148;16.326;2022-08-19T00:55:13;4.00;;;3.60;;
10565;SDS011;5331;48.148;16.326;2022-08-19T00:57:44;4.20;;;3.30;;
10565;SDS011;5331;48.148;16.326;2022-08-19T01:00:15;5.28;;;3.55;;
10565;SDS011;5331;48.148;16.326;2022-08-19T01:02:43;6.10;;;3.85;;
10565;SDS011;5331;48.148;16.326;2022-08-19T01:05:11;5.63;;;4.07;;
10565;SDS011;5331;48.148;16.326;2022-08-19T01:07:41;5.57;;;4.03;;
10565;SDS011;5331;48.148;16.326;2022-08-19T01:10:09;5.70;;;3.80;;
10565;SDS011;5331;48.148;16.326;2022-08-19T01:12:40;7.70;;;3.83;;
10565;SDS011;5331;48.148;16.326;2022-08-19T01:15:09;5.50;;;3.80;;
10565;SDS011;5331;48.148;16.326;2022-08-19T01:17:38;5.10;;;3.50;;
10565;SDS011;5331;48.148;16.326;2022-08-19T01:20:07;5.85;;;3.50;;
10565;SDS011;5331;48.148;16.326;2022-08-19T01:22:38;6.03;;;3.45;;
10565;SDS011;5331;48.148;16.326;2022-08-19T01:25:10;5.60;;;3.60;;
10565;SDS011;5331;48.148;16.326;2022-08-19T01:27:38;5.97;;;3.65;;
10565;SDS011;5331;48.148;16.326;2022-08-19T01:30:07;4.85;;;3.22;;
10565;SDS011;5331;48.148;16.326;2022-08-19T01:32:34;5.18;;;3.60;;
10565;SDS011;5331;48.148;16.326;2022-08-19T01:35:02;5.55;;;3.55;;
10565;SDS011;5331;48.148;16.326;2022-08-19T01:37:30;5.85;;;3.40;;
10565;SDS011;5331;48.148;16.326;2022-08-19T01:40:09;4.22;;;3.50;;
10565;SDS011;5331;48.148;16.326;2022-08-19T01:42:37;4.65;;;3.60;;
10565;SDS011;5331;48.148;16.326;2022-08-19T01:45:04;5.03;;;3.58;;
10565;SDS011;5331;48.148;16.326;2022-08-19T01:47:33;4.47;;;3.20;;
10565;SDS011;5331;48.148;16.326;2022-08-19T01:50:00;4.97;;;3.53;;
10565;SDS011;5331;48.148;16.326;2022-08-19T01:52:27;4.95;;;3.80;;
10565;SDS011;5331;48.148;16.326;2022-08-19T01:54:54;4.63;;;3.45;;
10565;SDS011;5331;48.148;16.326;2022-08-19T01:57:22;6.55;;;3.70;;
10565;SDS011;5331;48.148;16.326;2022-08-19T01:59:49;5.10;;;3.50;;
10565;SDS011;5331;48.148;16.326;2022-08-19T02:02:16;4.47;;;3.70;;
10565;SDS011;5331;48.148;16.326;2022-08-19T02:04:43;7.28;;;3.50;;
10565;SDS011;5331;48.148;16.326;2022-08-19T02:07:10;8.25;;;3.92;;
10565;SDS011;5331;48.148;16.326;2022-08-19T02:09:38;4.95;;;3.53;;
10565;SDS011;5331;48.148;16.326;2022-08-19T02:12:06;6.63;;;3.83;;
10565;SDS011;5331;48.148;16.326;2022-08-19T02:14:35;7.15;;;3.78;;
10565;SDS011;5331;48.148;16.326;2022-08-19T02:17:02;4.05;;;3.42;;
10565;SDS011;5331;48.148;16.326;2022-08-19T02:19:29;6.40;;;3.40;;
10565;SDS011;5331;48.148;16.326;2022-08-19T02:21:58;5.03;;;3.35;;
10565;SDS011;5331;48.148;16.326;2022-08-19T02:24:25;4.53;;;3.33;;
10565;SDS011;5331;48.148;16.326;2022-08-19T02:26:52;7.15;;;3.42;;
10565;SDS011;5331;48.148;16.326;2022-08-19T02:29:19;7.95;;;3.40;;
10565;SDS011;5331;48.148;16.326;2022-08-19T02:31:48;6.10;;;3.70;;
10565;SDS011;5331;48.148;16.326;2022-08-19T02:34:15;6.65;;;3.33;;
10565;SDS011;5331;48.148;16.326;2022-08-19T02:36:42;5.13;;;3.45;;
10565;SDS011;5331;48.148;16.326;2022-08-19T02:39:10;7.70;;;3.45;;
10565;SDS011;5331;48.148;16.326;2022-08-19T02:41:35;6.78;;;3.60;;
10565;SDS011;5331;48.148;16.326;2022-08-19T02:44:03;7.30;;;3.30;;
10565;SDS011;5331;48.148;16.326;2022-08-19T02:46:30;5.78;;;3.45;;
10565;SDS011;5331;48.148;16.326;2022-08-19T02:49:02;7.85;;;3.47;;
10565;SDS011;5331;48.148;16.326;2022-08-19T02:51:32;6.07;;;3.60;;
10565;SDS011;5331;48.148;16.326;2022-08-19T02:54:01;6.65;;;3.75;;
10565;SDS011;5331;48.148;16.326;2022-08-19T02:56:29;8.02;;;3.65;;
10565;SDS011;5331;48.148;16.326;2022-08-19T02:58:57;7.32;;;3.60;;
10565;SDS011;5331;48.148;16.326;2022-08-19T03:01:25;4.70;;;3.60;;
10565;SDS011;5331;48.148;16.326;2022-08-19T03:03:54;7.65;;;3.80;;
10565;SDS011;5331;48.148;16.326;2022-08-19T03:06:23;4.07;;;3.42;;
10565;SDS011;5331;48.148;16.326;2022-08-19T03:08:50;5.00;;;3.35;;
10565;SDS011;5331;48.148;16.326;2022-08-19T03:11:20;4.75;;;3.55;;
10565;SDS011;5331;48.148;16.326;2022-08-19T03:13:49;3.92;;;3.63;;
10565;SDS011;5331;48.148;16.326;2022-08-19T03:16:17;5.88;;;3.78;;
10565;SDS011;5331;48.148;16.326;2022-08-19T03:18:44;6.45;;;3.30;;
10565;SDS011;5331;48.148;16.326;2022-08-19T03:21:14;4.97;;;3.53;;
10565;SDS011;5331;48.148;16.326;2022-08-19T03:23:43;5.47;;;3.92;;
10565;SDS011;5331;48.148;16.326;2022-08-19T03:26:11;7.35;;;4.10;;
10565;SDS011;5331;48.148;16.326;2022-08-19T03:28:39;6.85;;;4.65;;
10565;SDS011;5331;48.148;16.326;2022-08-19T03:31:08;8.30;;;4.63;;
10565;SDS011;5331;48.148;16.326;2022-08-19T03:33:37;6.25;;;4.70;;
10565;SDS011;5331;48.148;16.326;2022-08-19T03:36:05;5.35;;;4.50;;
10565;SDS011;5331;48.148;16.326;2022-08-19T03:38:35;6.03;;;4.70;;
10565;SDS011;5331;48.148;16.326;2022-08-19T03:41:05;7.35;;;4.75;;
10565;SDS011;5331;48.148;16.326;2022-08-19T03:43:34;5.63;;;5.00;;
10565;SDS011;5331;48.148;16.326;2022-08-19T03:46:03;6.07;;;5.05;;
10565;SDS011;5331;48.148;16.326;2022-08-19T03:48:32;8.85;;;5.32;;
10565;SDS011;5331;48.148;16.326;2022-08-19T03:50:59;5.78;;;4.80;;
10565;SDS011;5331;48.148;16.326;2022-08-19T03:53:27;7.57;;;4.80;;
10565;SDS011;5331;48.148;16.326;2022-08-19T03:55:55;7.38;;;5.32;;
10565;SDS011;5331;48.148;16.326;2022-08-19T03:58:26;6.78;;;4.85;;
10565;SDS011;5331;48.148;16.326;2022-08-19T04:00:53;5.55;;;4.95;;
10565;SDS011;5331;48.148;16.326;2022-08-19T04:03:21;5.55;;;4.88;;
10565;SDS011;5331;48.148;16.326;2022-08-19T04:05:49;4.80;;;4.40;;
10565;SDS011;5331;48.148;16.326;2022-08-19T04:08:16;5.18;;;4.68;;
10565;SDS011;5331;48.148;16.326;2022-08-19T04:10:45;5.05;;;4.55;;
10565;SDS011;5331;48.148;16.326;2022-08-19T04:13:12;5.45;;;4.35;;
10565;SDS011;5331;48.148;16.326;2022-08-19T04:15:41;5.82;;;4.80;;
10565;SDS011;5331;48.148;16.326;2022-08-19T04:18:09;4.53;;;4.13;;
10565;SDS011;5331;48.148;16.326;2022-08-19T04:20:41;5.05;;;4.47;;
10565;SDS011;5331;48.148;16.326;2022-08-19T04:23:08;6.22;;;5.40;;
10565;SDS011;5331;48.148;16.326;2022-08-19T04:25:36;6.82;;;5.38;;
10565;SDS011;5331;48.148;16.326;2022-08-19T04:28:04;6.03;;;5.20;;
10565;SDS011;5331;48.148;16.326;2022-08-19T04:30:36;7.88;;;5.53;;
10565;SDS011;5331;48.148;16.326;2022-08-19T04:33:05;6.72;;;5.68;;
10565;SDS011;5331;48.148;16.326;2022-08-19T04:35:37;6.60;;;5.40;;
10565;SDS011;5331;48.148;16.326;2022-08-19T04:38:05;7.65;;;6.20;;
10565;SDS011;5331;48.148;16.326;2022-08-19T04:40:32;6.43;;;5.82;;
10565;SDS011;5331;48.148;16.326;2022-08-19T04:43:17;6.53;;;6.03;;
10565;SDS011;5331;48.148;16.326;2022-08-19T04:45:44;7.13;;;6.30;;
10565;SDS011;5331;48.148;16.326;2022-08-19T04:48:13;6.35;;;5.75;;
10565;SDS011;5331;48.148;16.326;2022-08-19T04:50:41;8.52;;;5.85;;
10565;SDS011;5331;48.148;16.326;2022-08-19T04:53:08;6.55;;;5.80;;
10565;SDS011;5331;48.148;16.326;2022-08-19T04:55:38;8.07;;;6.53;;
10565;SDS011;5331;48.148;16.326;2022-08-19T04:58:06;7.05;;;6.35;;
10565;SDS011;5331;48.148;16.326;2022-08-19T05:00:33;7.43;;;6.35;;
10565;SDS011;5331;48.148;16.326;2022-08-19T05:03:00;7.85;;;5.95;;
10565;SDS011;5331;48.148;16.326;2022-08-19T05:05:28;7.00;;;6.30;;
10565;SDS011;5331;48.148;16.326;2022-08-19T05:07:56;6.05;;;5.50;;
10565;SDS011;5331;48.148;16.326;2022-08-19T05:10:23;7.05;;;6.32;;
10565;SDS011;5331;48.148;16.326;2022-08-19T05:12:50;8.43;;;6.70;;
10565;SDS011;5331;48.148;16.326;2022-08-19T05:15:17;6.85;;;6.20;;
10565;SDS011;5331;48.148;16.326;2022-08-19T05:17:44;7.30;;;6.53;;
10565;SDS011;5331;48.148;16.326;2022-08-19T05:20:25;7.22;;;6.50;;
10565;SDS011;5331;48.148;16.326;2022-08-19T05:23:11;8.60;;;7.72;;
10565;SDS011;5331;48.148;16.326;2022-08-19T05:25:42;9.23;;;7.00;;
10565;SDS011;5331;48.148;16.326;2022-08-19T05:28:09;8.52;;;7.07;;
10565;SDS011;5331;48.148;16.326;2022-08-19T05:30:36;7.55;;;6.78;;
10565;SDS011;5331;48.148;16.326;2022-08-19T05:33:03;8.60;;;7.43;;
10565;SDS011;5331;48.148;16.326;2022-08-19T05:35:30;7.75;;;7.05;;
10565;SDS011;5331;48.148;16.326;2022-08-19T05:37:57;8.30;;;6.75;;
10565;SDS011;5331;48.148;16.326;2022-08-19T05:40:25;8.35;;;6.85;;
10565;SDS011;5331;48.148;16.326;2022-08-19T05:42:52;8.50;;;7.30;;
10565;SDS011;5331;48.148;16.326;2022-08-19T05:45:19;7.65;;;6.85;;
10565;SDS011;5331;48.148;16.326;2022-08-19T05:47:47;8.00;;;7.20;;
10565;SDS011;5331;48.148;16.326;2022-08-19T05:50:14;8.55;;;7.70;;
10565;SDS011;5331;48.148;16.326;2022-08-19T05:52:42;8.48;;;7.50;;
10565;SDS011;5331;48.148;16.326;2022-08-19T05:55:10;8.57;;;7.78;;
10565;SDS011;5331;48.148;16.326;2022-08-19T05:57:38;10.25;;;8.38;;
10565;SDS011;5331;48.148;16.326;2022-08-19T06:00:06;8.75;;;7.78;;
10565;SDS011;5331;48.148;16.326;2022-08-19T06:02:35;9.52;;;8.32;;
10565;SDS011;5331;48.148;16.326;2022-08-19T06:05:03;9.35;;;7.90;;
10565;SDS011;5331;48.148;16.326;2022-08-19T06:07:31;10.32;;;8.30;;
10565;SDS011;5331;48.148;16.326;2022-08-19T06:09:57;9.57;;;8.40;;
10565;SDS011;5331;48.148;16.326;2022-08-19T06:12:24;9.02;;;8.07;;
10565;SDS011;5331;48.148;16.326;2022-08-19T06:14:58;9.82;;;7.80;;
10565;SDS011;5331;48.148;16.326;2022-08-19T06:17:25;10.75;;;8.65;;
10565;SDS011;5331;48.148;16.326;2022-08-19T06:19:52;9.55;;;8.10;;
10565;SDS011;5331;48.148;16.326;2022-08-19T06:22:19;10.25;;;8.88;;
10565;SDS011;5331;48.148;16.326;2022-08-19T06:24:45;9.93;;;8.85;;
10565;SDS011;5331;48.148;16.326;2022-08-19T06:27:12;9.05;;;8.15;;
10565;SDS011;5331;48.148;16.326;2022-08-19T06:29:40;8.90;;;8.00;;
10565;SDS011;5331;48.148;16.326;2022-08-19T06:32:09;9.35;;;8.40;;
10565;SDS011;5331;48.148;16.326;2022-08-19T06:34:36;8.85;;;7.95;;
10565;SDS011;5331;48.148;16.326;2022-08-19T06:37:04;7.95;;;7.25;;
10565;SDS011;5331;48.148;16.326;2022-08-19T06:39:34;8.50;;;7.80;;
10565;SDS011;5331;48.148;16.326;2022-08-19T06:42:03;9.55;;;8.40;;
10565;SDS011;5331;48.148;16.326;2022-08-19T06:44:33;8.25;;;7.43;;
10565;SDS011;5331;48.148;16.326;2022-08-19T06:47:02;8.80;;;7.90;;
10565;SDS011;5331;48.148;16.326;2022-08-19T06:49:31;8.93;;;8.02;;
10565;SDS011;5331;48.148;16.326;2022-08-19T06:51:59;8.10;;;7.30;;
10565;SDS011;5331;48.148;16.326;2022-08-19T06:54:26;8.95;;;7.88;;
10565;SDS011;5331;48.148;16.326;2022-08-19T06:56:54;8.95;;;7.35;;
10565;SDS011;5331;48.148;16.326;2022-08-19T06:59:22;7.90;;;7.10;;
10565;SDS011;5331;48.148;16.326;2022-08-19T07:01:52;6.95;;;6.35;;
10565;SDS011;5331;48.148;16.326;2022-08-19T07:04:21;7.30;;;6.70;;
10565;SDS011;5331;48.148;16.326;2022-08-19T07:06:56;6.88;;;6.18;;
10565;SDS011;5331;48.148;16.326;2022-08-19T07:09:24;6.75;;;6.15;;
10565;SDS011;5331;48.148;16.326;2022-08-19T07:11:51;6.88;;;6.10;;
10565;SDS011;5331;48.148;16.326;2022-08-19T07:14:20;6.75;;;6.07;;
10565;SDS011;5331;48.148;16.326;2022-08-19T07:16:49;6.47;;;5.88;;
10565;SDS011;5331;48.148;16.326;2022-08-19T07:19:17;7.30;;;6.07;;
10565;SDS011;5331;48.148;16.326;2022-08-19T07:21:46;8.10;;;6.00;;
10565;SDS011;5331;48.148;16.326;2022-08-19T07:24:15;7.20;;;6.30;;
10565;SDS011;5331;48.148;16.326;2022-08-19T07:26:43;5.93;;;5.53;;
10565;SDS011;5331;48.148;16.326;2022-08-19T07:29:11;6.18;;;5.68;;
10565;SDS011;5331;48.148;16.326;2022-08-19T07:31:39;6.10;;;5.47;;
10565;SDS011;5331;48.148;16.326;2022-08-19T07:34:09;6.70;;;6.10;;
10565;SDS011;5331;48.148;16.326;2022-08-19T07:36:39;8.27;;;5.88;;
10565;SDS011;5331;48.148;16.326;2022-08-19T07:39:10;6.13;;;5.63;;
10565;SDS011;5331;48.148;16.326;2022-08-19T07:41:45;5.80;;;5.30;;
10565;SDS011;5331;48.148;16.326;2022-08-19T07:44:14;6.68;;;5.95;;
10565;SDS011;5331;48.148;16.326;2022-08-19T07:46:42;6.03;;;5.53;;
10565;SDS011;5331;48.148;16.326;2022-08-19T07:49:11;6.22;;;5.70;;
10565;SDS011;5331;48.148;16.326;2022-08-19T07:51:42;6.72;;;5.65;;
10565;SDS011;5331;48.148;16.326;2022-08-19T07:54:09;6.53;;;5.85;;
10565;SDS011;5331;48.148;16.326;2022-08-19T07:56:37;6.50;;;5.50;;
10565;SDS011;5331;48.148;16.326;2022-08-19T07:59:06;6.60;;;6.00;;
10565;SDS011;5331;48.148;16.326;2022-08-19T08:01:34;6.25;;;5.60;;
10565;SDS011;5331;48.148;16.326;2022-08-19T08:04:01;6.80;;;6.20;;
10565;SDS011;5331;48.148;16.326;2022-08-19T08:06:46;6.50;;;5.80;;
10565;SDS011;5331;48.148;16.326;2022-08-19T08:09:31;6.80;;;5.90;;
10565;SDS011;5331;48.148;16.326;2022-08-19T08:12:02;6.35;;;5.85;;
10565;SDS011;5331;48.148;16.326;2022-08-19T08:14:33;5.82;;;5.32;;
10565;SDS011;5331;48.148;16.326;2022-08-19T08:17:02;6.18;;;5.57;;
10565;SDS011;5331;48.148;16.326;2022-08-19T08:19:31;6.10;;;5.32;;
10565;SDS011;5331;48.148;16.326;2022-08-19T08:21:59;7.22;;;6.00;;
10565;SDS011;5331;48.148;16.326;2022-08-19T08:24:28;6.10;;;5.50;;
10565;SDS011;5331;48.148;16.326;2022-08-19T08:26:57;5.88;;;5.35;;
10565;SDS011;5331;48.148;16.326;2022-08-19T08:29:26;6.57;;;5.40;;
10565;SDS011;5331;48.148;16.326;2022-08-19T08:31:56;6.00;;;5.40;;
10565;SDS011;5331;48.148;16.326;2022-08-19T08:34:23;5.95;;;5.45;;
10565;SDS011;5331;48.148;16.326;2022-08-19T08:36:50;6.18;;;5.47;;
10565;SDS011;5331;48.148;16.326;2022-08-19T08:39:18;5.45;;;4.95;;
10565;SDS011;5331;48.148;16.326;2022-08-19T08:41:48;6.22;;;5.63;;
10565;SDS011;5331;48.148;16.326;2022-08-19T08:44:27;6.03;;;5.47;;
10565;SDS011;5331;48.148;16.326;2022-08-19T08:47:02;5.50;;;5.05;;
10565;SDS011;5331;48.148;16.326;2022-08-19T08:49:33;7.47;;;5.32;;
10565;SDS011;5331;48.148;16.326;2022-08-19T08:52:10;5.72;;;5.22;;
10565;SDS011;5331;48.148;16.326;2022-08-19T08:54:50;5.68;;;5.18;;
10565;SDS011;5331;48.148;16.326;2022-08-19T08:57:27;5.78;;;5.15;;
10565;SDS011;5331;48.148;16.326;2022-08-19T08:59:57;6.60;;;5.85;;
10565;SDS011;5331;48.148;16.326;2022-08-19T09:02:31;7.07;;;5.38;;
10565;SDS011;5331;48.148;16.326;2022-08-19T09:04:58;5.55;;;5.05;;
10565;SDS011;5331;48.148;16.326;2022-08-19T09:07:26;5.90;;;5.38;;
10565;SDS011;5331;48.148;16.326;2022-08-19T09:10:08;9.05;;;5.63;;
10565;SDS011;5331;48.148;16.326;2022-08-19T09:12:42;7.63;;;5.47;;
10565;SDS011;5331;48.148;16.326;2022-08-19T09:15:18;7.00;;;5.55;;
10565;SDS011;5331;48.148;16.326;2022-08-19T09:17:53;6.03;;;5.40;;
10565;SDS011;5331;48.148;16.326;2022-08-19T09:20:22;6.20;;;5.45;;
10565;SDS011;5331;48.148;16.326;2022-08-19T09:22:50;6.43;;;5.82;;
10565;SDS011;5331;48.148;16.326;2022-08-19T09:25:18;6.53;;;5.43;;
10565;SDS011;5331;48.148;16.326;2022-08-19T09:27:47;7.10;;;5.65;;
10565;SDS011;5331;48.148;16.326;2022-08-19T09:30:16;7.57;;;5.28;;
10565;SDS011;5331;48.148;16.326;2022-08-19T09:32:46;5.80;;;5.22;;
10565;SDS011;5331;48.148;16.326;2022-08-19T09:35:14;5.68;;;5.18;;
10565;SDS011;5331;48.148;16.326;2022-08-19T09:37:42;5.78;;;5.20;;
10565;SDS011;5331;48.148;16.326;2022-08-19T09:40:09;5.70;;;5.20;;
10565;SDS011;5331;48.148;16.326;2022-08-19T09:42:37;5.78;;;5.28;;
10565;SDS011;5331;48.148;16.326;2022-08-19T09:45:05;6.88;;;5.38;;
10565;SDS011;5331;48.148;16.326;2022-08-19T09:47:32;5.75;;;5.20;;
10565;SDS011;5331;48.148;16.326;2022-08-19T09:50:03;6.70;;;5.85;;
10565;SDS011;5331;48.148;16.326;2022-08-19T09:52:33;6.25;;;5.00;;
10565;SDS011;5331;48.148;16.326;2022-08-19T09:55:01;5.63;;;5.07;;
10565;SDS011;5331;48.148;16.326;2022-08-19T09:57:29;7.20;;;5.32;;
10565;SDS011;5331;48.148;16.326;2022-08-19T09:59:56;7.50;;;5.38;;
10565;SDS011;5331;48.148;16.326;2022-08-19T10:02:23;8.73;;;5.25;;
10565;SDS011;5331;48.148;16.326;2022-08-19T10:04:50;6.30;;;5.70;;
10565;SDS011;5331;48.148;16.326;2022-08-19T10:07:37;5.97;;;5.38;;
10565;SDS011;5331;48.148;16.326;2022-08-19T10:10:04;8.55;;;5.25;;
10565;SDS011;5331;48.148;16.326;2022-08-19T10:12:34;9.60;;;5.57;;
10565;SDS011;5331;48.148;16.326;2022-08-19T10:15:02;9.27;;;5.57;;
10565;SDS011;5331;48.148;16.326;2022-08-19T10:17:29;9.15;;;5.70;;
10565;SDS011;5331;48.148;16.326;2022-08-19T10:20:00;6.22;;;5.20;;
10565;SDS011;5331;48.148;16.326;2022-08-19T10:22:29;7.57;;;5.28;;
10565;SDS011;5331;48.148;16.326;2022-08-19T10:24:57;6.68;;;5.20;;
10565;SDS011;5331;48.148;16.326;2022-08-19T10:27:24;7.22;;;5.43;;
10565;SDS011;5331;48.148;16.326;2022-08-19T10:29:52;8.20;;;5.38;;
10565;SDS011;5331;48.148;16.326;2022-08-19T10:32:19;7.07;;;5.22;;
10565;SDS011;5331;48.148;16.326;2022-08-19T10:34:46;6.13;;;5.53;;
10565;SDS011;5331;48.148;16.326;2022-08-19T10:37:15;7.05;;;5.20;;
10565;SDS011;5331;48.148;16.326;2022-08-19T10:39:43;6.10;;;5.47;;
10565;SDS011;5331;48.148;16.326;2022-08-19T10:42:14;8.23;;;5.85;;
10565;SDS011;5331;48.148;16.326;2022-08-19T10:44:41;8.63;;;5.40;;
10565;SDS011;5331;48.148;16.326;2022-08-19T10:47:08;7.80;;;5.25;;
10565;SDS011;5331;48.148;16.326;2022-08-19T10:49:36;8.15;;;5.35;;
10565;SDS011;5331;48.148;16.326;2022-08-19T10:52:23;6.05;;;5.55;;
10565;SDS011;5331;48.148;16.326;2022-08-19T10:55:02;8.25;;;5.60;;
10565;SDS011;5331;48.148;16.326;2022-08-19T10:57:49;6.53;;;5.38;;
10565;SDS011;5331;48.148;16.326;2022-08-19T11:00:18;5.80;;;5.20;;
10565;SDS011;5331;48.148;16.326;2022-08-19T11:02:45;6.50;;;5.53;;
10565;SDS011;5331;48.148;16.326;2022-08-19T11:05:13;7.13;;;5.25;;
10565;SDS011;5331;48.148;16.326;2022-08-19T11:07:40;6.40;;;5.00;;
10565;SDS011;5331;48.148;16.326;2022-08-19T11:10:08;8.32;;;5.63;;
10565;SDS011;5331;48.148;16.326;2022-08-19T11:12:38;7.20;;;5.05;;
10565;SDS011;5331;48.148;16.326;2022-08-19T11:15:08;9.40;;;5.38;;
10565;SDS011;5331;48.148;16.326;2022-08-19T11:17:36;6.90;;;4.93;;
10565;SDS011;5331;48.148;16.326;2022-08-19T11:20:06;9.73;;;5.43;;
10565;SDS011;5331;48.148;16.326;2022-08-19T11:22:33;8.10;;;5.35;;
10565;SDS011;5331;48.148;16.326;2022-08-19T11:25:01;10.85;;;5.65;;
10565;SDS011;5331;48.148;16.326;2022-08-19T11:27:28;11.05;;;4.90;;
10565;SDS011;5331;48.148;16.326;2022-08-19T11:29:55;8.88;;;5.15;;
10565;SDS011;5331;48.148;16.326;2022-08-19T11:32:24;6.65;;;4.85;;
10565;SDS011;5331;48.148;16.326;2022-08-19T11:34:51;7.82;;;4.35;;
10565;SDS011;5331;48.148;16.326;2022-08-19T11:37:19;8.93;;;4.22;;
10565;SDS011;5331;48.148;16.326;2022-08-19T11:39:46;10.40;;;4.20;;
10565;SDS011;5331;48.148;16.326;2022-08-19T11:42:13;11.25;;;4.22;;
10565;SDS011;5331;48.148;16.326;2022-08-19T11:44:57;10.30;;;4.40;;
10565;SDS011;5331;48.148;16.326;2022-08-19T11:47:26;9.05;;;3.50;;
10565;SDS011;5331;48.148;16.326;2022-08-19T11:49:53;10.18;;;3.95;;
10565;SDS011;5331;48.148;16.326;2022-08-19T11:52:20;9.52;;;3.88;;
10565;SDS011;5331;48.148;16.326;2022-08-19T11:54:47;10.75;;;4.38;;
10565;SDS011;5331;48.148;16.326;2022-08-19T11:57:14;10.38;;;3.90;;
10565;SDS011;5331;48.148;16.326;2022-08-19T11:59:42;15.75;;;4.43;;
10565;SDS011;5331;48.148;16.326;2022-08-19T12:02:13;11.73;;;4.40;;
10565;SDS011;5331;48.148;16.326;2022-08-19T12:04:42;11.82;;;4.38;;
10565;SDS011;5331;48.148;16.326;2022-08-19T12:07:09;8.32;;;5.00;;
10565;SDS011;5331;48.148;16.326;2022-08-19T12:09:36;10.65;;;4.63;;
10565;SDS011;5331;48.148;16.326;2022-08-19T12:12:04;9.07;;;4.70;;
10565;SDS011;5331;48.148;16.326;2022-08-19T12:14:31;14.82;;;5.40;;
10565;SDS011;5331;48.148;16.326;2022-08-19T12:16:59;14.75;;;4.72;;
10565;SDS011;5331;48.148;16.326;2022-08-19T12:19:27;9.98;;;5.40;;
10565;SDS011;5331;48.148;16.326;2022-08-19T12:21:59;13.23;;;4.88;;
10565;SDS011;5331;48.148;16.326;2022-08-19T12:24:29;10.77;;;4.75;;
10565;SDS011;5331;48.148;16.326;2022-08-19T12:26:57;11.45;;;4.97;;
10565;SDS011;5331;48.148;16.326;2022-08-19T12:29:26;11.90;;;5.10;;
10565;SDS011;5331;48.148;16.326;2022-08-19T12:31:54;10.02;;;4.50;;
10565;SDS011;5331;48.148;16.326;2022-08-19T12:34:25;12.55;;;5.43;;
10565;SDS011;5331;48.148;16.326;2022-08-19T12:36:54;11.52;;;4.95;;
10565;SDS011;5331;48.148;16.326;2022-08-19T12:39:23;10.55;;;5.10;;
10565;SDS011;5331;48.148;16.326;2022-08-19T12:41:50;9.70;;;5.13;;
10565;SDS011;5331;48.148;16.326;2022-08-19T12:44:17;10.43;;;4.78;;
10565;SDS011;5331;48.148;16.326;2022-08-19T12:46:45;9.50;;;4.78;;
10565;SDS011;5331;48.148;16.326;2022-08-19T12:49:12;8.82;;;5.32;;
10565;SDS011;5331;48.148;16.326;2022-08-19T12:51:40;11.82;;;5.10;;
10565;SDS011;5331;48.148;16.326;2022-08-19T12:54:08;9.30;;;5.43;;
10565;SDS011;5331;48.148;16.326;2022-08-19T12:56:37;9.77;;;5.55;;
10565;SDS011;5331;48.148;16.326;2022-08-19T12:59:04;13.02;;;5.20;;
10565;SDS011;5331;48.148;16.326;2022-08-19T13:01:33;10.30;;;4.85;;
10565;SDS011;5331;48.148;16.326;2022-08-19T13:04:00;9.77;;;4.78;;
10565;SDS011;5331;48.148;16.326;2022-08-19T13:06:27;8.68;;;4.65;;
10565;SDS011;5331;48.148;16.326;2022-08-19T13:08:54;10.65;;;4.40;;
10565;SDS011;5331;48.148;16.326;2022-08-19T13:11:22;12.35;;;4.68;;
10565;SDS011;5331;48.148;16.326;2022-08-19T13:13:51;8.48;;;5.10;;
10565;SDS011;5331;48.148;16.326;2022-08-19T13:16:20;11.68;;;5.13;;
10565;SDS011;5331;48.148;16.326;2022-08-19T13:18:47;9.95;;;4.60;;
10565;SDS011;5331;48.148;16.326;2022-08-19T13:21:17;11.77;;;4.85;;
10565;SDS011;5331;48.148;16.326;2022-08-19T13:23:46;11.52;;;4.75;;
10565;SDS011;5331;48.148;16.326;2022-08-19T13:26:13;9.30;;;4.75;;
10565;SDS011;5331;48.148;16.326;2022-08-19T13:28:41;11.52;;;5.40;;
10565;SDS011;5331;48.148;16.326;2022-08-19T13:31:28;13.05;;;5.32;;
10565;SDS011;5331;48.148;16.326;2022-08-19T13:34:14;11.07;;;5.32;;
10565;SDS011;5331;48.148;16.326;2022-08-19T13:36:42;10.55;;;5.18;;
10565;SDS011;5331;48.148;16.326;2022-08-19T13:39:09;10.40;;;5.03;;
10565;SDS011;5331;48.148;16.326;2022-08-19T13:41:37;11.60;;;5.00;;
10565;SDS011;5331;48.148;16.326;2022-08-19T13:44:12;9.88;;;5.35;;
10565;SDS011;5331;48.148;16.326;2022-08-19T13:46:41;9.50;;;4.68;;
10565;SDS011;5331;48.148;16.326;2022-08-19T13:49:10;13.23;;;5.00;;
10565;SDS011;5331;48.148;16.326;2022-08-19T13:51:37;12.20;;;4.80;;
10565;SDS011;5331;48.148;16.326;2022-08-19T13:54:05;7.93;;;4.80;;
10565;SDS011;5331;48.148;16.326;2022-08-19T13:56:33;6.85;;;4.45;;
10565;SDS011;5331;48.148;16.326;2022-08-19T13:59:01;9.00;;;4.70;;
10565;SDS011;5331;48.148;16.326;2022-08-19T14:01:28;9.50;;;4.65;;
10565;SDS011;5331;48.148;16.326;2022-08-19T14:03:56;12.32;;;4.80;;
10565;SDS011;5331;48.148;16.326;2022-08-19T14:06:24;12.43;;;4.82;;
10565;SDS011;5331;48.148;16.326;2022-08-19T14:08:51;8.60;;;4.90;;
10565;SDS011;5331;48.148;16.326;2022-08-19T14:11:18;8.07;;;4.28;;
10565;SDS011;5331;48.148;16.326;2022-08-19T14:13:45;9.35;;;4.50;;
10565;SDS011;5331;48.148;16.326;2022-08-19T14:16:13;9.80;;;4.38;;
10565;SDS011;5331;48.148;16.326;2022-08-19T14:18:43;12.10;;;4.65;;
10565;SDS011;5331;48.148;16.326;2022-08-19T14:21:15;5.53;;;3.90;;
10565;SDS011;5331;48.148;16.326;2022-08-19T14:23:45;8.95;;;4.68;;
10565;SDS011;5331;48.148;16.326;2022-08-19T14:26:13;9.50;;;4.90;;
10565;SDS011;5331;48.148;16.326;2022-08-19T14:28:43;10.07;;;4.07;;
10565;SDS011;5331;48.148;16.326;2022-08-19T14:31:11;6.63;;;4.03;;
10565;SDS011;5331;48.148;16.326;2022-08-19T14:33:39;9.63;;;4.30;;
10565;SDS011;5331;48.148;16.326;2022-08-19T14:36:07;5.38;;;4.25;;
10565;SDS011;5331;48.148;16.326;2022-08-19T14:38:35;9.55;;;4.13;;
10565;SDS011;5331;48.148;16.326;2022-08-19T14:41:06;9.80;;;3.53;;
10565;SDS011;5331;48.148;16.326;2022-08-19T14:43:35;8.80;;;3.90;;
10565;SDS011;5331;48.148;16.326;2022-08-19T14:46:02;8.18;;;3.90;;
10565;SDS011;5331;48.148;16.326;2022-08-19T14:48:28;8.77;;;3.40;;
10565;SDS011;5331;48.148;16.326;2022-08-19T14:50:56;7.55;;;3.60;;
10565;SDS011;5331;48.148;16.326;2022-08-19T14:53:23;11.02;;;3.65;;
10565;SDS011;5331;48.148;16.326;2022-08-19T14:55:52;6.40;;;3.65;;